createdAt,value
2022-11-24T00:01:23.460Z,13.37
2022-11-24T00:03:58.827Z,13.20
2022-11-24T00:06:26.915Z,12.70
2022-11-24T00:08:54.819Z,12.87
2022-11-24T00:11:28.903Z,11.63
2022-11-24T00:13:56.605Z,12.20
2022-11-24T00:16:26.635Z,12.17
2022-11-24T00:18:56.232Z,12.87
2022-11-24T00:21:24.478Z,11.60
2022-11-24T00:23:52.189Z,13.10
2022-11-24T00:26:23.915Z,12.40
2022-11-24T00:28:53.504Z,11.90
2022-11-24T00:31:24.708Z,11.23
2022-11-24T00:33:57.240Z,12.43
2022-11-24T00:36:27.243Z,11.43
2022-11-24T00:38:56.352Z,11.23
2022-11-24T00:41:25.391Z,11.40
2022-11-24T00:43:53.037Z,11.50
2022-11-24T00:46:20.953Z,11.20
2022-11-24T00:48:48.062Z,11.47
2022-11-24T00:51:17.575Z,10.67
2022-11-24T00:53:45.392Z,11.07
2022-11-24T00:56:13.494Z,11.33
2022-11-24T00:58:41.007Z,12.37
2022-11-24T01:01:15.231Z,12.77
2022-11-24T01:03:45.026Z,13.20
2022-11-24T01:06:16.381Z,11.03
2022-11-24T01:08:44.498Z,12.13
2022-11-24T01:11:50.454Z,12.10
2022-11-24T01:14:17.694Z,11.83
2022-11-24T01:16:44.665Z,11.00
2022-11-24T01:19:11.585Z,12.13
2022-11-24T01:21:38.541Z,12.67
2022-11-24T01:24:05.871Z,11.23
2022-11-24T01:26:32.820Z,12.83
2022-11-24T01:28:59.830Z,11.50
2022-11-24T01:31:27.951Z,13.13
2022-11-24T01:33:55.291Z,12.33
2022-11-24T01:36:22.474Z,12.23
2022-11-24T01:38:49.499Z,11.87
2022-11-24T01:41:22.590Z,12.80
2022-11-24T01:43:51.186Z,12.50
2022-11-24T01:46:34.246Z,12.43
2022-11-24T01:49:33.836Z,11.73
2022-11-24T01:52:24.791Z,12.00
2022-11-24T01:55:17.177Z,12.73
2022-11-24T01:58:06.347Z,13.17
2022-11-24T02:00:37.105Z,12.33
2022-11-24T02:03:04.186Z,12.93
2022-11-24T02:05:47.543Z,12.50
2022-11-24T02:08:33.639Z,11.80
2022-11-24T02:11:04.626Z,12.10
2022-11-24T02:13:37.181Z,12.63
2022-11-24T02:16:07.890Z,12.10
2022-11-24T02:18:35.011Z,13.43
2022-11-24T02:21:01.943Z,12.27
2022-11-24T02:24:11.232Z,12.87
2022-11-24T02:26:56.131Z,12.60
2022-11-24T02:29:23.139Z,13.90
2022-11-24T02:31:59.748Z,13.80
2022-11-24T02:34:26.796Z,12.03
2022-11-24T02:36:53.790Z,12.93
2022-11-24T02:39:20.767Z,11.70
2022-11-24T02:41:54.925Z,12.13
2022-11-24T02:44:25.564Z,10.63
2022-11-24T02:47:11.367Z,9.60
2022-11-24T02:49:39.015Z,9.50
2022-11-24T02:52:06.823Z,9.83
2022-11-24T02:54:34.177Z,9.23
2022-11-24T02:57:01.464Z,9.87
2022-11-24T02:59:28.584Z,8.63
2022-11-24T03:01:55.666Z,8.27
2022-11-24T03:04:22.654Z,9.70
2022-11-24T03:06:49.645Z,9.90
2022-11-24T03:09:16.642Z,9.17
2022-11-24T03:11:43.612Z,8.80
2022-11-24T03:14:10.645Z,8.93
2022-11-24T03:16:37.882Z,8.57
2022-11-24T03:19:05.162Z,9.10
2022-11-24T03:21:32.118Z,8.57
2022-11-24T03:23:59.046Z,9.50
2022-11-24T03:26:26.000Z,9.47
2022-11-24T03:28:57.265Z,9.03
2022-11-24T03:31:24.593Z,9.33
2022-11-24T03:33:51.947Z,8.53
2022-11-24T03:36:19.230Z,9.07
2022-11-24T03:38:46.471Z,9.53
2022-11-24T03:41:13.516Z,8.73
2022-11-24T03:43:43.788Z,9.90
2022-11-24T03:46:12.436Z,8.77
2022-11-24T03:48:39.649Z,8.30
2022-11-24T03:51:06.778Z,8.83
2022-11-24T03:53:34.377Z,8.57
2022-11-24T03:56:02.226Z,7.87
2022-11-24T03:58:29.870Z,8.67
2022-11-24T04:00:57.749Z,9.30
2022-11-24T04:03:25.438Z,9.30
2022-11-24T04:05:52.724Z,8.27
2022-11-24T04:08:20.053Z,8.37
2022-11-24T04:10:51.823Z,8.30
2022-11-24T04:13:23.103Z,7.47
2022-11-24T04:15:50.822Z,7.50
2022-11-24T04:18:18.294Z,8.47
2022-11-24T04:20:45.710Z,7.43
2022-11-24T04:23:12.674Z,8.80
2022-11-24T04:25:39.707Z,7.47
2022-11-24T04:28:09.181Z,8.37
2022-11-24T04:30:38.564Z,7.93
2022-11-24T04:33:05.484Z,8.10
2022-11-24T04:35:32.486Z,8.23
2022-11-24T04:38:03.092Z,7.67
2022-11-24T04:40:30.280Z,8.03
2022-11-24T04:42:57.572Z,7.97
2022-11-24T04:45:24.908Z,7.87
2022-11-24T04:47:52.050Z,7.20
2022-11-24T04:50:19.045Z,8.43
2022-11-24T04:52:46.030Z,7.33
2022-11-24T04:55:13.045Z,8.40
2022-11-24T04:57:40.150Z,7.03
2022-11-24T05:00:09.203Z,7.73
2022-11-24T05:02:36.947Z,7.60
2022-11-24T05:05:05.204Z,7.43
2022-11-24T05:07:34.718Z,7.53
2022-11-24T05:10:20.037Z,8.00
2022-11-24T05:12:59.328Z,7.47
2022-11-24T05:15:26.552Z,7.37
2022-11-24T05:17:53.767Z,7.70
2022-11-24T05:20:21.623Z,7.00
2022-11-24T05:22:48.557Z,7.63
2022-11-24T05:25:15.721Z,7.67
2022-11-24T05:27:42.617Z,8.10
2022-11-24T05:30:11.341Z,8.07
2022-11-24T05:32:38.207Z,7.47
2022-11-24T05:35:06.165Z,7.03
2022-11-24T05:37:33.111Z,7.03
2022-11-24T05:39:59.996Z,7.13
2022-11-24T05:42:46.663Z,7.83
2022-11-24T05:45:21.131Z,6.80
2022-11-24T05:47:49.833Z,7.53
2022-11-24T05:50:19.047Z,8.47
2022-11-24T05:52:45.952Z,8.43
2022-11-24T05:55:14.768Z,8.80
2022-11-24T05:57:42.677Z,7.67
2022-11-24T06:00:11.306Z,8.57
2022-11-24T06:02:41.296Z,8.70
2022-11-24T06:05:08.585Z,8.30
2022-11-24T06:07:35.774Z,7.87
2022-11-24T06:10:02.823Z,7.83
2022-11-24T06:12:29.695Z,7.93
2022-11-24T06:14:56.609Z,8.27
2022-11-24T06:17:23.497Z,7.80
2022-11-24T06:19:51.731Z,7.87
2022-11-24T06:22:19.341Z,7.97
2022-11-24T06:24:47.607Z,7.37
2022-11-24T06:27:14.827Z,7.63
2022-11-24T06:29:41.859Z,8.30
2022-11-24T06:32:09.432Z,7.40
2022-11-24T06:34:36.796Z,7.60
2022-11-24T06:37:03.910Z,7.37
2022-11-24T06:39:30.813Z,7.50
2022-11-24T06:41:57.751Z,7.03
2022-11-24T06:44:25.076Z,8.43
2022-11-24T06:46:51.991Z,7.97
2022-11-24T06:49:19.094Z,8.30
2022-11-24T06:51:45.998Z,7.87
2022-11-24T06:54:17.067Z,7.37
2022-11-24T06:56:44.072Z,7.40
2022-11-24T06:59:18.600Z,7.43
2022-11-24T07:01:45.811Z,8.20
2022-11-24T07:04:13.229Z,7.60
2022-11-24T07:06:41.366Z,7.67
2022-11-24T07:09:13.641Z,7.23
2022-11-24T07:11:41.477Z,7.30
2022-11-24T07:14:08.922Z,8.17
2022-11-24T07:16:36.263Z,6.93
2022-11-24T07:19:03.503Z,8.00
2022-11-24T07:21:30.886Z,8.37
2022-11-24T07:23:58.305Z,8.53
2022-11-24T07:26:26.011Z,8.80
2022-11-24T07:28:53.132Z,7.57
2022-11-24T07:31:24.901Z,8.73
2022-11-24T07:33:54.043Z,8.70
2022-11-24T07:36:22.237Z,7.53
2022-11-24T07:38:49.410Z,8.77
2022-11-24T07:41:19.646Z,8.10
2022-11-24T07:43:47.478Z,8.50
2022-11-24T07:46:17.271Z,8.33
2022-11-24T07:48:44.408Z,8.67
2022-11-24T07:51:11.641Z,7.70
2022-11-24T07:53:38.710Z,9.97
2022-11-24T07:56:06.888Z,7.93
2022-11-24T07:58:36.389Z,10.30
2022-11-24T08:01:17.840Z,8.70
2022-11-24T08:03:46.658Z,8.93
2022-11-24T08:06:38.549Z,9.50
2022-11-24T08:09:01.905Z,9.23
2022-11-24T08:11:31.387Z,9.40
2022-11-24T08:13:58.477Z,9.37
2022-11-24T08:16:25.439Z,10.53
2022-11-24T08:18:55.175Z,9.00
2022-11-24T08:21:23.602Z,9.70
2022-11-24T08:23:54.442Z,10.67
2022-11-24T08:26:21.455Z,9.53
2022-11-24T08:28:53.958Z,9.53
2022-11-24T08:31:21.008Z,8.77
2022-11-24T08:33:48.077Z,10.07
2022-11-24T08:36:18.418Z,10.10
2022-11-24T08:38:46.286Z,9.40
2022-11-24T08:41:16.449Z,9.13
2022-11-24T08:43:43.626Z,9.33
2022-11-24T08:46:17.054Z,9.33
2022-11-24T08:48:48.462Z,9.23
2022-11-24T08:51:19.280Z,9.53
2022-11-24T08:53:46.228Z,18.53
2022-11-24T08:56:13.756Z,8.87
2022-11-24T08:58:41.571Z,8.97
2022-11-24T09:01:13.420Z,9.87
2022-11-24T09:03:46.592Z,9.30
2022-11-24T09:06:19.995Z,9.30
2022-11-24T09:08:46.945Z,8.67
2022-11-24T09:11:17.192Z,9.13
2022-11-24T09:13:44.428Z,8.37
2022-11-24T09:16:15.319Z,9.10
2022-11-24T09:18:42.755Z,8.77
2022-11-24T09:21:19.503Z,9.33
2022-11-24T09:23:49.061Z,8.30
2022-11-24T09:26:21.018Z,8.43
2022-11-24T09:28:48.836Z,8.00
2022-11-24T09:31:17.882Z,8.43
2022-11-24T09:33:45.351Z,8.97
2022-11-24T09:36:12.836Z,8.33
2022-11-24T09:38:40.195Z,8.63
2022-11-24T09:41:46.371Z,8.23
2022-11-24T09:44:46.355Z,9.37
2022-11-24T09:47:39.364Z,9.57
2022-11-24T09:50:15.866Z,9.67
2022-11-24T09:53:03.743Z,154.13
2022-11-24T09:56:03.950Z,95.93
2022-11-24T09:59:00.581Z,179.73
2022-11-24T10:01:41.128Z,111.00
2022-11-24T10:04:18.904Z,134.23
2022-11-24T10:07:12.685Z,94.00
2022-11-24T10:10:04.221Z,79.23
2022-11-24T10:12:40.499Z,84.83
2022-11-24T10:15:36.975Z,108.87
2022-11-24T10:18:24.271Z,122.47
2022-11-24T10:21:18.383Z,124.70
2022-11-24T10:24:18.559Z,97.63
2022-11-24T10:27:16.235Z,73.93
2022-11-24T10:29:44.071Z,89.93
2022-11-24T10:32:41.296Z,130.80
2022-11-24T10:35:22.481Z,78.53
2022-11-24T10:38:31.802Z,149.83
2022-11-24T10:41:23.429Z,110.33
2022-11-24T10:43:52.368Z,68.20
2022-11-24T10:46:31.380Z,101.23
2022-11-24T10:49:04.991Z,62.57
2022-11-24T10:51:34.792Z,67.43
2022-11-24T10:54:12.601Z,96.93
2022-11-24T10:56:44.921Z,98.13
2022-11-24T10:59:24.682Z,121.10
2022-11-24T11:01:52.869Z,114.40
2022-11-24T11:04:32.849Z,98.70
2022-11-24T11:07:22.397Z,128.10
2022-11-24T11:09:49.857Z,85.53
2022-11-24T11:15:31.152Z,156.10
2022-11-24T11:18:01.098Z,81.17
2022-11-24T11:20:33.745Z,96.00
2022-11-24T11:23:14.497Z,84.53
2022-11-24T11:25:41.428Z,65.33
2022-11-24T11:28:31.613Z,101.00
2022-11-24T11:31:22.113Z,142.73
2022-11-24T11:34:15.853Z,66.53
2022-11-24T11:36:51.085Z,85.83
2022-11-24T11:39:30.572Z,63.00
2022-11-24T11:45:36.320Z,86.23
2022-11-24T11:48:03.250Z,82.07
2022-11-24T11:51:21.774Z,73.83
2022-11-24T11:53:49.487Z,91.93
2022-11-24T11:56:28.635Z,96.17
2022-11-24T11:59:35.652Z,89.23
2022-11-24T12:02:27.875Z,85.27
2022-11-24T12:05:05.771Z,67.53
2022-11-24T12:07:58.210Z,148.27
2022-11-24T12:11:02.960Z,122.80
2022-11-24T12:14:03.259Z,114.50
2022-11-24T12:16:35.539Z,120.07
2022-11-24T12:19:23.903Z,88.77
2022-11-24T12:21:55.574Z,94.67
2022-11-24T12:24:47.131Z,142.60
2022-11-24T12:27:52.904Z,97.30
2022-11-24T12:30:22.011Z,122.00
2022-11-24T12:33:29.352Z,112.67
2022-11-24T12:36:15.669Z,146.77
2022-11-24T12:38:56.280Z,151.40
2022-11-24T12:41:42.204Z,150.67
2022-11-24T12:45:06.142Z,143.83
2022-11-24T12:48:14.091Z,94.80
2022-11-24T12:50:44.015Z,156.90
2022-11-24T12:53:14.203Z,99.87
2022-11-24T12:55:43.056Z,114.90
2022-11-24T12:58:51.791Z,135.17
2022-11-24T13:01:21.781Z,130.53
2022-11-24T13:04:15.121Z,71.23
2022-11-24T13:07:10.177Z,164.90
2022-11-24T13:09:37.596Z,340.87
2022-11-24T13:12:14.701Z,264.30
2022-11-24T13:14:47.219Z,101.37
2022-11-24T13:17:43.492Z,70.77
2022-11-24T13:20:20.026Z,105.03
2022-11-24T13:23:23.096Z,133.43
2022-11-24T13:26:29.016Z,129.37
2022-11-24T13:29:23.748Z,122.87
2022-11-24T13:31:52.082Z,120.13
2022-11-24T13:34:40.946Z,130.97
2022-11-24T13:37:34.649Z,151.40
2022-11-24T13:40:22.539Z,195.93
2022-11-24T13:42:58.052Z,200.70
2022-11-24T13:45:40.948Z,244.50
2022-11-24T13:48:20.772Z,243.63
2022-11-24T13:50:51.450Z,105.67
2022-11-24T13:53:40.876Z,145.27
2022-11-24T13:56:23.626Z,161.27
2022-11-24T13:59:00.329Z,134.77
2022-11-24T14:01:36.806Z,120.57
2022-11-24T14:04:35.268Z,221.30
2022-11-24T14:07:11.694Z,107.00
2022-11-24T14:09:48.940Z,178.77
2022-11-24T14:12:26.783Z,154.93
2022-11-24T14:15:19.969Z,90.53
2022-11-24T14:17:46.858Z,79.93
2022-11-24T14:20:24.610Z,115.10
2022-11-24T14:22:51.968Z,106.67
2022-11-24T14:25:30.236Z,85.80
2022-11-24T14:27:57.263Z,92.13
2022-11-24T14:30:25.954Z,163.00
2022-11-24T14:33:01.468Z,115.57
2022-11-24T14:35:34.939Z,57.40
2022-11-24T14:38:04.780Z,81.80
2022-11-24T14:40:45.082Z,142.83
2022-11-24T14:43:32.620Z,83.80
2022-11-24T14:46:01.608Z,122.60
2022-11-24T14:48:46.964Z,103.53
2022-11-24T14:51:37.692Z,163.47
2022-11-24T14:54:18.206Z,85.57
2022-11-24T14:57:06.398Z,117.63
2022-11-24T14:59:36.473Z,159.97
2022-11-24T15:02:44.671Z,84.87
2022-11-24T15:05:11.828Z,140.60
2022-11-24T15:07:41.272Z,110.63
2022-11-24T15:10:34.747Z,144.30
2022-11-24T15:13:06.125Z,95.17
2022-11-24T15:15:36.880Z,236.27
2022-11-24T15:18:05.916Z,214.20
2022-11-24T15:20:36.915Z,179.27
2022-11-24T15:23:29.571Z,104.27
2022-11-24T15:25:58.049Z,84.60
2022-11-24T15:28:28.097Z,88.87
2022-11-24T15:30:59.457Z,132.17
2022-11-24T15:33:27.029Z,141.57
2022-11-24T15:35:54.214Z,137.57
2022-11-24T15:38:22.262Z,189.37
2022-11-24T15:40:52.971Z,113.20
2022-11-24T15:43:40.161Z,138.90
2022-11-24T15:46:08.999Z,92.93
2022-11-24T15:48:36.151Z,107.97
2022-11-24T15:51:07.007Z,111.93
2022-11-24T15:53:44.671Z,197.60
2022-11-24T15:56:29.264Z,105.53
2022-11-24T15:58:56.519Z,76.10
2022-11-24T16:01:29.579Z,63.33
2022-11-24T16:03:56.490Z,68.40
2022-11-24T16:06:25.136Z,71.57
2022-11-24T16:08:53.910Z,89.53
2022-11-24T16:11:21.899Z,135.37
2022-11-24T16:13:52.840Z,57.03
2022-11-24T16:16:22.627Z,58.07
2022-11-24T16:18:49.615Z,66.30
2022-11-24T16:21:17.665Z,111.50
2022-11-24T16:23:45.614Z,153.83
2022-11-24T16:26:12.500Z,156.47
2022-11-24T16:28:39.411Z,161.83
2022-11-24T16:31:06.485Z,86.37
2022-11-24T16:33:33.408Z,172.47
2022-11-24T16:36:00.282Z,253.70
2022-11-24T16:38:27.166Z,170.97
2022-11-24T16:40:56.440Z,146.10
2022-11-24T16:43:24.571Z,267.37
2022-11-24T16:46:18.295Z,221.20
2022-11-24T16:48:47.667Z,253.10
2022-11-24T16:51:15.688Z,81.43
2022-11-24T16:53:43.230Z,77.17
2022-11-24T16:56:10.160Z,85.47
2022-11-24T16:58:39.739Z,88.20
2022-11-24T17:01:09.037Z,79.00
2022-11-24T17:03:39.794Z,77.90
2022-11-24T17:06:10.413Z,100.70
2022-11-24T17:08:39.725Z,86.53
2022-11-24T17:11:10.081Z,84.50
2022-11-24T17:13:37.625Z,112.73
2022-11-24T17:16:14.110Z,137.60
2022-11-24T17:18:41.748Z,81.60
2022-11-24T17:21:13.958Z,81.00
2022-11-24T17:23:40.954Z,102.40
2022-11-24T17:26:14.517Z,115.10
2022-11-24T17:28:42.462Z,114.17
2022-11-24T17:31:23.650Z,184.43
2022-11-24T17:33:52.177Z,127.43
2022-11-24T17:36:19.864Z,68.70
2022-11-24T17:38:49.037Z,141.83
2022-11-24T17:41:16.793Z,202.67
2022-11-24T17:43:43.704Z,91.27
2022-11-24T17:46:10.990Z,99.93
2022-11-24T17:48:37.939Z,86.87
2022-11-24T17:51:14.168Z,141.63
2022-11-24T17:53:47.076Z,131.90
2022-11-24T17:56:23.719Z,118.97
2022-11-24T17:58:59.190Z,157.13
2022-11-24T18:01:28.654Z,177.87
2022-11-24T18:03:55.840Z,98.07
2022-11-24T18:06:25.382Z,89.03
2022-11-24T18:08:54.153Z,72.97
2022-11-24T18:11:30.463Z,66.50
2022-11-24T18:14:02.531Z,71.93
2022-11-24T18:16:32.074Z,71.87
2022-11-24T18:19:10.421Z,63.43
2022-11-24T18:21:43.705Z,94.57
2022-11-24T18:24:12.093Z,85.63
2022-11-24T18:26:43.165Z,97.43
2022-11-24T18:29:11.429Z,100.23
2022-11-24T18:31:38.802Z,93.00
2022-11-24T18:34:06.618Z,121.90
2022-11-24T18:36:34.910Z,101.73
2022-11-24T18:39:07.910Z,114.70
2022-11-24T18:41:35.308Z,119.70
2022-11-24T18:44:03.140Z,113.93
2022-11-24T18:46:30.084Z,117.20
2022-11-24T18:48:57.215Z,127.37
2022-11-24T18:51:24.200Z,108.50
2022-11-24T18:53:54.625Z,122.67
2022-11-24T18:56:21.877Z,105.07
2022-11-24T18:58:52.665Z,209.70
2022-11-24T19:01:28.323Z,181.73
2022-11-24T19:03:58.196Z,205.47
2022-11-24T19:06:32.223Z,144.30
2022-11-24T19:09:08.596Z,149.27
2022-11-24T19:11:39.310Z,220.80
2022-11-24T19:14:08.187Z,219.10
2022-11-24T19:16:35.916Z,205.23
2022-11-24T19:19:04.104Z,129.87
2022-11-24T19:21:33.394Z,187.47
2022-11-24T19:24:04.878Z,134.53
2022-11-24T19:26:34.886Z,103.57
2022-11-24T19:29:02.683Z,278.43
2022-11-24T19:31:30.112Z,342.07
2022-11-24T19:33:58.703Z,306.47
2022-11-24T19:36:26.317Z,236.37
2022-11-24T19:38:56.004Z,249.47
2022-11-24T19:41:27.256Z,211.57
2022-11-24T19:43:54.821Z,178.87
2022-11-24T19:46:26.243Z,173.93
2022-11-24T19:48:56.119Z,184.43
2022-11-24T19:51:32.927Z,115.60
2022-11-24T19:54:01.131Z,160.57
2022-11-24T19:56:30.872Z,195.23
2022-11-24T19:58:58.248Z,104.53
2022-11-24T20:01:31.653Z,110.00
2022-11-24T20:04:06.249Z,90.63
2022-11-24T20:06:37.754Z,106.43
2022-11-24T20:09:08.906Z,126.10
2022-11-24T20:11:36.520Z,145.47
2022-11-24T20:14:04.312Z,180.40
2022-11-24T20:16:34.158Z,108.00
2022-11-24T20:19:08.530Z,88.77
2022-11-24T20:21:37.407Z,163.23
2022-11-24T20:24:14.583Z,72.20
2022-11-24T20:26:56.416Z,105.67
2022-11-24T20:29:23.406Z,83.50
2022-11-24T20:31:53.703Z,94.73
2022-11-24T20:34:21.756Z,84.90
2022-11-24T20:36:49.105Z,98.13
2022-11-24T20:39:26.416Z,143.90
2022-11-24T20:41:54.874Z,83.97
2022-11-24T20:44:23.153Z,81.90
2022-11-24T20:46:50.105Z,128.17
2022-11-24T20:49:19.685Z,137.53
2022-11-24T20:51:49.237Z,153.87
2022-11-24T20:54:18.239Z,189.73
2022-11-24T20:56:46.889Z,187.40
2022-11-24T20:59:18.047Z,96.43
2022-11-24T21:01:47.019Z,172.57
2022-11-24T21:04:23.607Z,178.20
2022-11-24T21:06:50.865Z,102.03
2022-11-24T21:09:18.458Z,133.80
2022-11-24T21:11:45.649Z,102.23
2022-11-24T21:14:12.757Z,90.73
2022-11-24T21:16:41.388Z,157.13
2022-11-24T21:19:12.819Z,109.00
2022-11-24T21:21:42.452Z,114.93
2022-11-24T21:24:15.559Z,112.87
2022-11-24T21:26:44.093Z,192.67
2022-11-24T21:29:13.093Z,109.60
2022-11-24T21:31:40.178Z,158.67
2022-11-24T21:34:08.264Z,71.17
2022-11-24T21:36:36.113Z,85.43
2022-11-24T21:39:04.094Z,111.17
2022-11-24T21:41:33.662Z,98.43
2022-11-24T21:44:00.636Z,174.63
2022-11-24T21:46:29.529Z,175.60
2022-11-24T21:48:56.414Z,194.37
2022-11-24T21:51:23.369Z,118.43
2022-11-24T21:53:50.318Z,111.10
2022-11-24T21:56:20.027Z,120.90
2022-11-24T21:58:56.136Z,111.23
2022-11-24T22:01:27.369Z,108.87
2022-11-24T22:03:54.779Z,109.60
2022-11-24T22:06:21.754Z,105.53
2022-11-24T22:08:49.188Z,141.40
2022-11-24T22:11:21.940Z,114.67
2022-11-24T22:13:50.516Z,93.07
2022-11-24T22:16:23.384Z,142.47
2022-11-24T22:18:51.526Z,169.57
2022-11-24T22:21:30.053Z,211.80
2022-11-24T22:23:57.276Z,117.97
2022-11-24T22:26:25.099Z,118.23
2022-11-24T22:28:53.357Z,123.73
2022-11-24T22:31:29.885Z,116.97
2022-11-24T22:33:58.332Z,97.87
2022-11-24T22:36:28.383Z,171.90
2022-11-24T22:38:58.245Z,134.77
2022-11-24T22:41:26.036Z,71.03
2022-11-24T22:43:53.808Z,89.73
2022-11-24T22:46:24.692Z,135.50
2022-11-24T22:48:53.596Z,128.43
2022-11-24T22:51:28.866Z,99.60
2022-11-24T22:53:58.586Z,130.70
2022-11-24T22:56:27.996Z,136.10
2022-11-24T22:58:54.966Z,124.80
2022-11-24T23:01:24.438Z,91.03
2022-11-24T23:03:54.474Z,76.20
2022-11-24T23:06:27.513Z,181.47
2022-11-24T23:08:55.292Z,131.23
2022-11-24T23:11:38.057Z,96.60
2022-11-24T23:14:08.624Z,124.30
2022-11-24T23:16:35.659Z,126.70
2022-11-24T23:19:02.873Z,148.70
2022-11-24T23:21:33.212Z,99.00
2022-11-24T23:24:02.380Z,82.50
2022-11-24T23:26:34.394Z,130.93
2022-11-24T23:29:01.548Z,116.33
2022-11-24T23:31:29.177Z,173.37
2022-11-24T23:34:01.418Z,89.07
2022-11-24T23:36:29.290Z,170.67
2022-11-24T23:38:56.397Z,94.53
2022-11-24T23:41:25.805Z,103.17
2022-11-24T23:43:52.886Z,202.70
2022-11-24T23:46:25.636Z,123.23
2022-11-24T23:48:54.173Z,104.57
2022-11-24T23:51:30.242Z,76.90
2022-11-24T23:53:58.182Z,126.00
2022-11-24T23:56:32.755Z,136.63
2022-11-24T23:59:04.540Z,80.37
